createdAt,value
2019-04-10T00:00:41.147Z,102.10
2019-04-10T00:03:22.251Z,108.73
2019-04-10T00:05:38.230Z,111.27
2019-04-10T00:08:08.103Z,103.70
2019-04-10T00:10:36.189Z,103.17
2019-04-10T00:13:04.510Z,112.07
2019-04-10T00:15:32.675Z,113.93
2019-04-10T00:18:00.361Z,105.87
2019-04-10T00:20:28.808Z,104.43
2019-04-10T00:22:56.551Z,109.53
2019-04-10T00:25:24.421Z,113.17
2019-04-10T00:27:52.719Z,109.87
2019-04-10T00:30:20.756Z,125.77
2019-04-10T00:32:48.361Z,118.33
2019-04-10T00:35:16.078Z,123.40
2019-04-10T00:37:43.650Z,120.67
2019-04-10T00:40:11.289Z,129.90
2019-04-10T00:42:38.850Z,128.80
2019-04-10T00:45:06.520Z,128.00
2019-04-10T00:47:34.944Z,123.67
2019-04-10T00:50:02.798Z,137.30
2019-04-10T00:52:30.435Z,128.40
2019-04-10T00:54:57.888Z,129.83
2019-04-10T00:57:25.517Z,119.67
2019-04-10T00:59:53.077Z,141.40
2019-04-10T01:02:20.648Z,127.47
2019-04-10T01:04:48.860Z,133.47
2019-04-10T01:07:16.879Z,139.17
2019-04-10T01:09:44.339Z,137.17
2019-04-10T01:12:11.936Z,126.20
2019-04-10T01:14:40.095Z,126.53
2019-04-10T01:17:08.312Z,152.37
2019-04-10T01:19:36.336Z,122.33
2019-04-10T01:22:03.998Z,136.43
2019-04-10T01:24:31.443Z,132.90
2019-04-10T01:26:59.316Z,137.10
2019-04-10T01:29:27.260Z,132.70
2019-04-10T01:31:55.264Z,129.83
2019-04-10T01:34:22.805Z,138.97
2019-04-10T01:36:52.293Z,144.73
2019-04-10T01:39:24.256Z,131.30
2019-04-10T01:41:52.286Z,120.03
2019-04-10T01:44:20.508Z,120.50
2019-04-10T01:46:48.671Z,113.37
2019-04-10T01:49:16.242Z,122.37
2019-04-10T01:51:43.709Z,120.00
2019-04-10T01:54:11.203Z,125.37
2019-04-10T01:56:39.681Z,111.60
2019-04-10T01:59:07.744Z,103.27
2019-04-10T02:01:40.856Z,104.83
2019-04-10T02:04:09.361Z,108.47
2019-04-10T02:06:37.715Z,115.47
2019-04-10T02:09:08.519Z,105.27
2019-04-10T02:11:36.304Z,100.33
2019-04-10T02:14:03.738Z,102.67
2019-04-10T02:16:31.199Z,106.37
2019-04-10T02:18:59.588Z,95.47
2019-04-10T02:21:27.520Z,105.80
2019-04-10T02:23:55.103Z,107.37
2019-04-10T02:26:23.664Z,94.23
2019-04-10T02:28:53.383Z,98.40
2019-04-10T02:31:21.513Z,104.77
2019-04-10T02:33:51.754Z,102.37
2019-04-10T02:36:19.551Z,98.50
2019-04-10T02:38:59.053Z,97.87
2019-04-10T02:41:17.376Z,105.57
2019-04-10T02:43:45.336Z,107.37
2019-04-10T02:46:13.317Z,101.20
2019-04-10T02:48:41.557Z,107.40
2019-04-10T02:51:09.692Z,92.47
2019-04-10T02:53:39.194Z,90.70
2019-04-10T02:56:07.255Z,92.70
2019-04-10T02:58:34.794Z,93.57
2019-04-10T03:01:03.974Z,105.17
2019-04-10T03:03:31.623Z,90.33
2019-04-10T03:06:00.361Z,89.37
2019-04-10T03:08:41.253Z,97.20
2019-04-10T03:11:02.628Z,85.53
2019-04-10T03:13:27.711Z,93.90
2019-04-10T03:15:56.397Z,90.33
2019-04-10T03:18:25.205Z,82.97
2019-04-10T03:20:52.683Z,85.93
2019-04-10T03:23:21.095Z,83.93
2019-04-10T03:25:48.886Z,77.70
2019-04-10T03:28:16.714Z,92.50
2019-04-10T03:30:46.434Z,85.20
2019-04-10T03:33:29.590Z,90.07
2019-04-10T03:35:55.517Z,85.67
2019-04-10T03:38:24.125Z,92.37
2019-04-10T03:40:51.789Z,86.80
2019-04-10T03:43:19.534Z,100.57
2019-04-10T03:45:47.088Z,80.50
2019-04-10T03:48:14.554Z,86.77
2019-04-10T03:50:42.029Z,88.43
2019-04-10T03:53:09.762Z,88.07
2019-04-10T03:55:38.382Z,89.90
2019-04-10T03:58:05.921Z,86.07
2019-04-10T04:00:34.265Z,82.87
2019-04-10T04:03:02.530Z,83.47
2019-04-10T04:05:30.863Z,89.47
2019-04-10T04:07:59.175Z,91.00
2019-04-10T04:10:26.874Z,94.63
2019-04-10T04:12:55.130Z,83.93
2019-04-10T04:15:24.011Z,92.57
2019-04-10T04:17:52.609Z,96.10
2019-04-10T04:20:21.131Z,89.60
2019-04-10T04:22:49.475Z,90.67
2019-04-10T04:25:18.142Z,90.93
2019-04-10T04:27:46.330Z,91.73
2019-04-10T04:30:15.220Z,90.53
2019-04-10T04:32:43.893Z,93.77
2019-04-10T04:35:11.760Z,91.17
2019-04-10T04:37:39.235Z,95.53
2019-04-10T04:40:06.825Z,88.40
2019-04-10T04:42:35.125Z,92.13
2019-04-10T04:45:05.227Z,85.50
2019-04-10T04:55:07.929Z,89.90
2019-04-10T04:57:37.817Z,89.13
2019-04-10T05:00:06.235Z,94.00
2019-04-10T05:02:34.803Z,88.47
2019-04-10T05:05:02.577Z,94.40
2019-04-10T05:07:31.238Z,90.70
2019-04-10T05:10:00.610Z,82.77
2019-04-10T05:12:28.321Z,88.63
2019-04-10T05:14:56.003Z,97.47
2019-04-10T05:17:24.247Z,80.30
2019-04-10T05:19:52.320Z,86.83
2019-04-10T05:22:19.972Z,77.37
2019-04-10T05:24:47.406Z,73.43
2019-04-10T05:27:15.985Z,80.27
2019-04-10T05:29:43.673Z,84.70
2019-04-10T05:32:11.455Z,83.90
2019-04-10T05:34:39.052Z,80.37
2019-04-10T05:37:07.320Z,85.13
2019-04-10T05:39:43.354Z,83.90
2019-04-10T05:42:04.782Z,86.00
2019-04-10T05:44:32.256Z,76.30
2019-04-10T05:47:01.105Z,81.00
2019-04-10T05:49:28.917Z,77.33
2019-04-10T05:51:57.390Z,79.67
2019-04-10T05:54:25.199Z,72.17
2019-04-10T05:56:52.765Z,67.70
2019-04-10T05:59:20.330Z,73.57
2019-04-10T06:01:48.548Z,71.80
2019-04-10T06:04:16.897Z,72.33
2019-04-10T06:06:44.548Z,71.23
2019-04-10T06:09:12.377Z,68.10
2019-04-10T06:11:42.849Z,71.33
2019-04-10T06:14:10.144Z,77.10
2019-04-10T06:16:37.622Z,60.37
2019-04-10T06:19:05.198Z,60.00
2019-04-10T06:21:32.662Z,70.23
2019-04-10T06:24:00.201Z,71.47
2019-04-10T06:26:28.047Z,68.67
2019-04-10T06:28:56.780Z,66.27
2019-04-10T06:31:24.931Z,69.13
2019-04-10T06:33:52.784Z,65.00
2019-04-10T06:36:21.476Z,71.20
2019-04-10T06:38:49.098Z,68.50
2019-04-10T06:41:17.690Z,65.03
2019-04-10T06:43:45.703Z,60.70
2019-04-10T06:46:13.179Z,56.43
2019-04-10T06:48:40.730Z,63.87
2019-04-10T06:51:08.414Z,56.03
2019-04-10T06:53:37.326Z,59.33
2019-04-10T06:56:05.653Z,74.43
2019-04-10T06:58:34.007Z,57.30
2019-04-10T07:01:01.925Z,61.13
2019-04-10T07:03:45.709Z,60.10
2019-04-10T07:06:07.834Z,64.90
2019-04-10T07:08:29.636Z,65.00
2019-04-10T07:11:04.701Z,61.30
2019-04-10T07:13:28.068Z,60.63
2019-04-10T07:15:58.190Z,58.87
2019-04-10T07:18:26.300Z,64.30
2019-04-10T07:20:57.227Z,63.27
2019-04-10T07:23:27.443Z,69.73
2019-04-10T07:25:54.863Z,62.20
2019-04-10T07:28:23.425Z,57.23
2019-04-10T07:30:52.007Z,85.77
2019-04-10T07:33:21.028Z,65.60
2019-04-10T07:35:49.865Z,57.80
2019-04-10T07:38:18.369Z,70.10
2019-04-10T07:40:47.071Z,53.30
2019-04-10T07:43:15.281Z,59.87
2019-04-10T07:45:42.823Z,57.87
2019-04-10T07:48:10.761Z,58.40
2019-04-10T07:50:39.060Z,60.30
2019-04-10T07:53:06.609Z,62.03
2019-04-10T07:55:34.166Z,57.17
2019-04-10T07:58:02.738Z,59.03
2019-04-10T08:00:30.728Z,57.27
2019-04-10T08:02:59.393Z,54.83
2019-04-10T08:05:27.245Z,64.53
2019-04-10T08:07:56.482Z,55.67
2019-04-10T08:10:24.454Z,54.87
2019-04-10T08:12:53.942Z,51.60
2019-04-10T08:15:21.301Z,59.80
2019-04-10T08:17:50.833Z,55.27
2019-04-10T08:20:18.177Z,66.03
2019-04-10T08:22:46.761Z,58.23
2019-04-10T08:25:14.540Z,52.47
2019-04-10T08:27:41.990Z,57.70
2019-04-10T08:30:11.033Z,55.53
2019-04-10T08:32:50.935Z,58.60
2019-04-10T08:35:09.122Z,56.07
2019-04-10T08:37:36.916Z,65.90
2019-04-10T08:40:07.485Z,61.03
2019-04-10T08:42:35.259Z,54.20
2019-04-10T08:45:03.263Z,55.27
2019-04-10T08:47:31.825Z,58.00
2019-04-10T08:49:59.305Z,51.47
2019-04-10T08:52:28.335Z,50.33
2019-04-10T08:54:55.922Z,51.07
2019-04-10T08:57:23.522Z,58.80
2019-04-10T08:59:52.021Z,49.40
2019-04-10T09:02:20.111Z,49.17
2019-04-10T09:04:47.655Z,53.67
2019-04-10T09:07:15.850Z,52.27
2019-04-10T09:09:43.458Z,47.87
2019-04-10T09:12:11.180Z,52.00
2019-04-10T09:14:38.629Z,52.07
2019-04-10T09:17:06.990Z,53.50
2019-04-10T09:19:34.625Z,63.03
2019-04-10T09:22:02.143Z,57.97
2019-04-10T09:24:30.616Z,52.50
2019-04-10T09:26:58.051Z,50.67
2019-04-10T09:29:25.819Z,52.80
2019-04-10T09:31:53.732Z,56.37
2019-04-10T09:34:21.331Z,57.03
2019-04-10T09:36:49.203Z,51.87
2019-04-10T09:39:17.170Z,61.27
2019-04-10T09:41:45.978Z,56.03
2019-04-10T09:44:14.384Z,51.40
2019-04-10T09:46:42.878Z,58.30
2019-04-10T09:49:10.449Z,53.80
2019-04-10T09:51:38.313Z,53.53
2019-04-10T09:54:05.838Z,49.70
2019-04-10T09:56:34.266Z,50.80
2019-04-10T09:59:02.035Z,56.70
2019-04-10T10:01:30.288Z,52.70
2019-04-10T10:03:59.174Z,51.07
2019-04-10T10:06:31.938Z,52.50
2019-04-10T10:08:56.450Z,48.20
2019-04-10T10:11:24.342Z,58.33
2019-04-10T10:13:52.274Z,48.83
2019-04-10T10:16:20.927Z,48.40
2019-04-10T10:18:48.523Z,47.07
2019-04-10T10:21:16.632Z,50.73
2019-04-10T10:23:44.680Z,48.50
2019-04-10T10:26:12.632Z,52.17
2019-04-10T10:28:40.514Z,42.73
2019-04-10T10:31:08.188Z,55.03
2019-04-10T10:33:35.668Z,49.50
2019-04-10T10:36:03.374Z,52.97
2019-04-10T10:38:31.440Z,44.33
2019-04-10T10:41:01.120Z,52.67
2019-04-10T10:43:28.857Z,49.07
2019-04-10T10:45:56.471Z,58.20
2019-04-10T10:48:24.055Z,64.83
2019-04-10T10:50:51.564Z,51.40
2019-04-10T10:53:20.026Z,46.20
2019-04-10T10:55:49.735Z,49.53
2019-04-10T10:58:17.269Z,51.30
2019-04-10T11:00:44.769Z,54.43
2019-04-10T11:03:12.247Z,49.67
2019-04-10T11:05:39.851Z,48.37
2019-04-10T11:08:07.441Z,51.63
2019-04-10T11:10:34.973Z,58.80
2019-04-10T11:13:02.508Z,46.27
2019-04-10T11:15:29.967Z,59.00
2019-04-10T11:17:57.811Z,49.40
2019-04-10T11:20:25.661Z,50.97
2019-04-10T11:22:53.627Z,56.37
2019-04-10T11:25:22.137Z,49.50
2019-04-10T11:27:50.219Z,49.93
2019-04-10T11:30:18.302Z,45.83
2019-04-10T11:32:46.286Z,46.73
2019-04-10T11:35:15.398Z,48.33
2019-04-10T11:37:45.447Z,42.93
2019-04-10T11:40:17.232Z,46.23
2019-04-10T11:42:44.694Z,42.37
2019-04-10T11:45:16.204Z,50.37
2019-04-10T11:47:42.652Z,44.93
2019-04-10T11:50:14.038Z,50.67
2019-04-10T11:52:46.639Z,56.50
2019-04-10T11:57:38.930Z,43.57
2019-04-10T12:00:12.249Z,44.87
2019-04-10T12:02:37.112Z,47.13
2019-04-10T12:05:10.920Z,46.13
2019-04-10T12:08:06.167Z,46.00
2019-04-10T12:12:35.473Z,43.80
2019-04-10T12:15:03.979Z,44.27
2019-04-10T12:17:33.820Z,48.70
2019-04-10T12:20:01.412Z,41.10
2019-04-10T12:22:29.633Z,42.40
2019-04-10T12:24:57.209Z,35.67
2019-04-10T12:27:25.160Z,39.43
2019-04-10T12:29:53.129Z,40.50
2019-04-10T12:32:20.845Z,38.00
2019-04-10T12:34:48.716Z,33.63
2019-04-10T12:37:17.332Z,43.80
2019-04-10T12:39:45.429Z,37.90
2019-04-10T12:42:14.215Z,40.37
2019-04-10T12:44:42.743Z,36.13
2019-04-10T12:47:10.350Z,42.30
2019-04-10T12:49:39.432Z,40.27
2019-04-10T12:52:08.041Z,39.70
2019-04-10T12:57:16.970Z,47.10
2019-04-10T12:59:45.750Z,42.70
2019-04-10T13:02:14.682Z,39.47
2019-04-10T13:04:42.883Z,45.03
2019-04-10T13:07:11.458Z,38.73
2019-04-10T13:09:40.132Z,43.73
2019-04-10T13:12:07.758Z,36.03
2019-04-10T13:14:35.317Z,36.90
2019-04-10T13:17:02.953Z,44.10
2019-04-10T13:19:31.235Z,42.20
2019-04-10T13:21:59.890Z,41.53
2019-04-10T13:24:27.942Z,39.60
2019-04-10T13:26:56.479Z,42.40
2019-04-10T13:29:24.480Z,40.90
2019-04-10T13:31:52.142Z,39.27
2019-04-10T13:34:19.818Z,41.20
2019-04-10T13:36:48.070Z,37.73
2019-04-10T13:39:17.718Z,47.73
2019-04-10T13:41:45.049Z,35.30
2019-04-10T13:44:12.761Z,42.80
2019-04-10T13:46:40.677Z,38.80
2019-04-10T13:49:09.271Z,39.63
2019-04-10T13:51:37.329Z,46.10
2019-04-10T13:54:06.147Z,49.60
2019-04-10T13:56:33.741Z,42.47
2019-04-10T13:59:01.575Z,40.13
2019-04-10T14:01:31.544Z,41.73
2019-04-10T14:03:59.229Z,36.47
2019-04-10T14:06:27.491Z,48.67
2019-04-10T14:09:12.005Z,44.57
2019-04-10T14:11:24.976Z,47.93
2019-04-10T14:13:52.438Z,38.10
2019-04-10T14:16:22.403Z,39.97
2019-04-10T14:18:50.868Z,39.20
2019-04-10T14:21:18.833Z,39.83
2019-04-10T14:23:47.218Z,32.97
2019-04-10T14:26:42.145Z,35.73
2019-04-10T14:29:03.433Z,46.60
2019-04-10T14:31:34.303Z,36.53
2019-04-10T14:34:02.783Z,34.27
2019-04-10T14:36:31.851Z,36.03
2019-04-10T14:39:10.009Z,33.73
2019-04-10T14:41:30.755Z,36.73
2019-04-10T14:43:58.226Z,34.20
2019-04-10T14:46:26.287Z,31.20
2019-04-10T14:48:54.446Z,31.93
2019-04-10T14:51:24.125Z,31.67
2019-04-10T14:53:51.823Z,51.10
2019-04-10T14:56:19.315Z,38.23
2019-04-10T14:58:46.792Z,29.73
2019-04-10T15:01:14.338Z,38.13
2019-04-10T15:03:42.897Z,41.53
2019-04-10T15:06:11.988Z,35.03
2019-04-10T15:08:39.715Z,33.20
2019-04-10T15:11:07.283Z,32.10
2019-04-10T15:13:36.018Z,34.50
2019-04-10T15:16:04.941Z,31.87
2019-04-10T15:18:33.140Z,31.23
2019-04-10T15:21:00.747Z,32.23
2019-04-10T15:23:28.285Z,31.40
2019-04-10T15:25:55.808Z,35.47
2019-04-10T15:28:23.496Z,31.43
2019-04-10T15:30:51.132Z,33.60
2019-04-10T15:33:20.630Z,35.60
2019-04-10T15:35:48.158Z,32.70
2019-04-10T15:38:15.805Z,32.20
2019-04-10T15:40:44.061Z,35.63
2019-04-10T15:43:12.622Z,42.67
2019-04-10T15:45:40.267Z,36.77
2019-04-10T15:48:08.291Z,111.60
2019-04-10T15:50:35.914Z,41.27
2019-04-10T15:53:04.105Z,33.90
2019-04-10T15:55:32.699Z,37.00
2019-04-10T15:58:02.298Z,45.67
2019-04-10T16:00:29.716Z,42.83
2019-04-10T16:02:57.365Z,37.93
2019-04-10T16:08:04.891Z,39.20
2019-04-10T16:10:47.659Z,39.70
2019-04-10T16:13:34.512Z,42.00
2019-04-10T16:16:15.561Z,43.77
2019-04-10T16:18:44.333Z,43.17
2019-04-10T16:21:12.503Z,45.20
2019-04-10T16:23:44.229Z,45.50
2019-04-10T16:26:11.887Z,47.03
2019-04-10T16:28:39.692Z,42.63
2019-04-10T16:31:07.570Z,46.00
2019-04-10T16:33:35.744Z,52.30
2019-04-10T16:36:03.677Z,52.10
2019-04-10T16:38:31.289Z,44.87
2019-04-10T16:40:58.865Z,40.60
2019-04-10T16:43:26.478Z,45.37
2019-04-10T16:45:55.071Z,38.33
2019-04-10T16:48:24.660Z,48.70
2019-04-10T16:50:52.247Z,46.47
2019-04-10T16:53:20.139Z,44.77
2019-04-10T16:55:47.793Z,44.73
2019-04-10T16:58:15.912Z,46.23
2019-04-10T17:00:43.593Z,44.13
2019-04-10T17:03:11.658Z,47.63
2019-04-10T17:05:39.791Z,46.57
2019-04-10T17:08:07.759Z,40.50
2019-04-10T17:10:36.596Z,40.43
2019-04-10T17:13:04.609Z,40.23
2019-04-10T17:15:32.281Z,44.13
2019-04-10T17:18:00.959Z,42.40
2019-04-10T17:20:28.850Z,37.60
2019-04-10T17:22:56.586Z,43.67
2019-04-10T17:25:24.389Z,41.33
2019-04-10T17:27:52.129Z,42.10
2019-04-10T17:30:19.932Z,46.30
2019-04-10T17:32:48.670Z,48.67
2019-04-10T17:35:16.287Z,44.30
2019-04-10T17:37:43.715Z,40.00
2019-04-10T17:40:28.418Z,43.20
2019-04-10T17:42:46.249Z,46.97
2019-04-10T17:45:14.268Z,48.43
2019-04-10T17:47:42.095Z,40.33
2019-04-10T17:50:12.011Z,42.30
2019-04-10T17:52:40.843Z,41.97
2019-04-10T17:55:09.372Z,46.30
2019-04-10T17:57:41.371Z,55.47
2019-04-10T18:00:21.175Z,48.53
2019-04-10T18:02:48.853Z,39.93
2019-04-10T18:05:16.275Z,39.33
2019-04-10T18:07:44.005Z,47.10
2019-04-10T18:10:13.833Z,38.80
2019-04-10T18:12:41.868Z,39.10
2019-04-10T18:15:09.414Z,38.37
2019-04-10T18:17:36.874Z,38.83
2019-04-10T18:20:04.477Z,41.67
2019-04-10T18:22:31.941Z,38.73
2019-04-10T18:24:59.437Z,36.80
2019-04-10T18:27:28.091Z,40.87
2019-04-10T18:29:55.688Z,39.47
2019-04-10T18:32:23.452Z,45.33
2019-04-10T18:34:52.054Z,35.10
2019-04-10T18:37:23.542Z,39.37
2019-04-10T18:39:49.037Z,38.53
2019-04-10T18:42:17.296Z,38.10
2019-04-10T18:44:44.903Z,44.73
2019-04-10T18:47:13.123Z,36.00
2019-04-10T18:49:40.684Z,37.60
2019-04-10T18:52:08.193Z,39.33
2019-04-10T18:54:36.013Z,41.47
2019-04-10T18:57:03.682Z,37.30
2019-04-10T18:59:46.936Z,40.30
2019-04-10T19:02:29.917Z,32.40
2019-04-10T19:05:16.084Z,34.07
2019-04-10T19:07:43.676Z,33.70
2019-04-10T19:10:12.801Z,33.63
2019-04-10T19:12:41.095Z,34.63
2019-04-10T19:15:08.976Z,39.17
2019-04-10T19:17:37.145Z,36.77
2019-04-10T19:20:07.275Z,32.33
2019-04-10T19:22:35.110Z,35.87
2019-04-10T19:25:03.130Z,31.23
2019-04-10T19:27:31.788Z,35.80
2019-04-10T19:29:59.455Z,31.33
2019-04-10T19:32:33.325Z,33.60
2019-04-10T19:35:01.016Z,32.20
2019-04-10T19:37:28.578Z,32.57
2019-04-10T19:39:56.509Z,31.03
2019-04-10T19:42:25.016Z,27.80
2019-04-10T19:52:34.710Z,27.67
2019-04-10T19:55:03.268Z,33.47
2019-04-10T19:57:31.153Z,26.97
2019-04-10T19:59:59.930Z,30.77
2019-04-10T20:02:27.857Z,29.40
2019-04-10T20:04:55.438Z,34.60
2019-04-10T20:07:22.937Z,30.40
2019-04-10T20:09:50.681Z,26.33
2019-04-10T20:12:18.417Z,24.03
2019-04-10T20:14:46.467Z,25.00
2019-04-10T20:17:14.206Z,20.63
2019-04-10T20:19:42.562Z,24.63
2019-04-10T20:22:10.525Z,22.20
2019-04-10T20:24:38.248Z,28.90
2019-04-10T20:27:06.133Z,22.07
2019-04-10T20:29:34.810Z,24.33
2019-04-10T20:32:03.808Z,30.03
2019-04-10T20:34:31.671Z,25.43
2019-04-10T20:37:03.614Z,23.90
2019-04-10T20:39:29.533Z,21.90
2019-04-10T20:41:59.330Z,27.53
2019-04-10T20:44:27.038Z,26.77
2019-04-10T20:46:54.869Z,25.43
2019-04-10T20:49:22.553Z,20.77
2019-04-10T20:51:50.491Z,37.00
2019-04-10T20:54:18.086Z,27.07
2019-04-10T20:56:46.530Z,21.27
2019-04-10T20:59:15.400Z,23.20
2019-04-10T21:01:42.992Z,25.40
2019-04-10T21:04:10.514Z,20.97
2019-04-10T21:06:41.645Z,26.20
2019-04-10T21:09:07.659Z,22.17
2019-04-10T21:11:35.605Z,23.67
2019-04-10T21:14:03.396Z,19.53
2019-04-10T21:16:31.518Z,21.10
2019-04-10T21:19:00.183Z,26.57
2019-04-10T21:21:27.980Z,19.43
2019-04-10T21:23:56.480Z,20.10
2019-04-10T21:26:24.282Z,20.83
2019-04-10T21:28:51.927Z,22.40
2019-04-10T21:31:46.277Z,19.47
2019-04-10T21:34:21.825Z,25.13
2019-04-10T21:36:49.623Z,20.97
2019-04-10T21:39:17.139Z,18.50
2019-04-10T21:41:44.655Z,23.07
2019-04-10T21:44:12.999Z,18.17
2019-04-10T21:46:41.002Z,16.90
2019-04-10T21:49:08.618Z,14.73
2019-04-10T21:51:36.985Z,15.30
2019-04-10T21:54:04.948Z,20.63
2019-04-10T21:56:33.048Z,17.13
2019-04-10T21:59:01.175Z,19.60
2019-04-10T22:01:28.833Z,19.10
2019-04-10T22:03:56.525Z,19.87
2019-04-10T22:06:49.789Z,21.23
2019-04-10T22:09:35.402Z,22.50
2019-04-10T22:12:21.578Z,17.30
2019-04-10T22:14:39.595Z,16.60
2019-04-10T22:17:08.717Z,15.73
2019-04-10T22:19:38.018Z,20.70
2019-04-10T22:22:06.273Z,17.50
2019-04-10T22:24:34.091Z,14.30
2019-04-10T22:27:03.069Z,26.80
2019-04-10T22:29:30.742Z,24.77
2019-04-10T22:31:58.178Z,21.10
2019-04-10T22:34:25.675Z,16.90
2019-04-10T22:36:53.497Z,20.03
2019-04-10T22:39:21.328Z,17.77
2019-04-10T22:41:48.751Z,16.17
2019-04-10T22:44:17.457Z,15.73
2019-04-10T22:46:45.180Z,18.20
2019-04-10T22:49:12.716Z,15.30
2019-04-10T22:51:40.214Z,19.30
2019-04-10T22:54:08.146Z,19.67
2019-04-10T22:56:35.958Z,17.43
2019-04-10T22:59:03.936Z,16.80
2019-04-10T23:01:31.515Z,16.73
2019-04-10T23:04:00.046Z,19.70
2019-04-10T23:06:27.500Z,19.83
2019-04-10T23:08:55.877Z,18.87
2019-04-10T23:11:31.751Z,18.00
2019-04-10T23:13:52.766Z,19.17
2019-04-10T23:16:20.304Z,17.93
2019-04-10T23:18:47.850Z,14.90
2019-04-10T23:21:16.477Z,17.77
2019-04-10T23:23:45.297Z,16.93
2019-04-10T23:26:14.319Z,21.53
2019-04-10T23:28:42.356Z,18.30
2019-04-10T23:31:09.833Z,20.00
2019-04-10T23:33:37.347Z,17.30
2019-04-10T23:36:05.870Z,18.17
2019-04-10T23:38:33.327Z,14.50
2019-04-10T23:41:01.194Z,15.90
2019-04-10T23:43:29.437Z,15.43
2019-04-10T23:45:57.819Z,19.40
2019-04-10T23:48:25.647Z,16.83
2019-04-10T23:50:54.397Z,16.40
2019-04-10T23:53:22.596Z,13.27
2019-04-10T23:55:50.363Z,15.87
2019-04-10T23:58:18.070Z,16.27
